createdAt,value
2023-02-12T00:00:30.983Z,83.79
2023-02-12T00:03:35.070Z,83.74
2023-02-12T00:06:39.337Z,84.09
2023-02-12T00:09:42.404Z,84.01
2023-02-12T00:12:45.305Z,84.21
2023-02-12T00:15:48.271Z,84.30
2023-02-12T00:18:54.862Z,83.97
2023-02-12T00:21:57.629Z,84.32
2023-02-12T00:25:00.330Z,83.96
2023-02-12T00:28:03.806Z,83.92
2023-02-12T00:31:08.585Z,84.00
2023-02-12T00:34:12.709Z,84.15
2023-02-12T00:37:16.056Z,83.75
2023-02-12T00:40:19.065Z,84.06
2023-02-12T00:43:21.904Z,83.92
2023-02-12T00:46:24.953Z,84.05
2023-02-12T00:49:29.362Z,84.31
2023-02-12T00:52:32.133Z,84.08
2023-02-12T00:55:35.223Z,84.20
2023-02-12T00:58:37.936Z,84.40
2023-02-12T01:01:41.253Z,84.16
2023-02-12T01:04:46.095Z,84.20
2023-02-12T01:07:50.733Z,84.49
2023-02-12T01:10:59.221Z,84.24
2023-02-12T01:14:02.295Z,84.30
2023-02-12T01:17:05.028Z,84.30
2023-02-12T01:20:12.454Z,84.74
2023-02-12T01:23:15.165Z,84.48
2023-02-12T01:26:19.826Z,84.46
2023-02-12T01:29:22.558Z,84.59
2023-02-12T01:32:25.366Z,84.85
2023-02-12T01:35:29.427Z,85.18
2023-02-12T01:38:32.406Z,85.13
2023-02-12T01:41:37.582Z,85.54
2023-02-12T01:44:44.963Z,85.48
2023-02-12T01:47:47.830Z,85.53
2023-02-12T01:50:54.184Z,85.77
2023-02-12T01:54:00.215Z,85.60
2023-02-12T01:57:06.025Z,85.72
2023-02-12T02:00:12.421Z,84.99
2023-02-12T02:03:15.472Z,85.33
2023-02-12T02:06:23.678Z,85.44
2023-02-12T02:09:27.132Z,85.41
2023-02-12T02:12:49.507Z,85.44
2023-02-12T02:15:58.447Z,85.67
2023-02-12T02:19:09.106Z,85.45
2023-02-12T02:22:22.762Z,85.51
2023-02-12T02:25:58.107Z,85.81
2023-02-12T02:29:15.450Z,85.66
2023-02-12T02:32:25.710Z,85.99
2023-02-12T02:35:33.454Z,85.87
2023-02-12T02:38:43.357Z,86.06
2023-02-12T02:41:51.095Z,85.80
2023-02-12T02:44:55.854Z,86.05
2023-02-12T02:48:05.805Z,85.82
2023-02-12T02:51:13.071Z,85.47
2023-02-12T02:54:21.429Z,85.68
2023-02-12T02:57:29.283Z,85.40
2023-02-12T03:00:38.773Z,85.56
2023-02-12T03:03:50.248Z,85.24
2023-02-12T03:06:57.445Z,85.20
2023-02-12T03:10:03.364Z,85.20
2023-02-12T03:13:10.282Z,85.41
2023-02-12T03:16:17.982Z,85.22
2023-02-12T03:19:26.026Z,85.46
2023-02-12T03:22:32.607Z,85.29
2023-02-12T03:25:39.314Z,85.39
2023-02-12T03:28:42.244Z,85.27
2023-02-12T03:31:56.797Z,85.29
2023-02-12T03:35:13.531Z,85.25
2023-02-12T03:38:22.970Z,85.33
2023-02-12T03:41:32.140Z,85.35
2023-02-12T03:44:48.869Z,85.11
2023-02-12T03:48:02.333Z,85.03
2023-02-12T03:51:16.022Z,85.07
2023-02-12T03:54:21.380Z,85.09
2023-02-12T03:57:30.658Z,85.05
2023-02-12T04:00:33.551Z,85.11
2023-02-12T04:03:36.419Z,85.01
2023-02-12T04:06:41.296Z,85.14
2023-02-12T04:09:44.537Z,85.05
2023-02-12T04:12:55.818Z,85.12
2023-02-12T04:16:08.967Z,85.07
2023-02-12T04:19:15.680Z,85.29
2023-02-12T04:22:36.147Z,85.32
2023-02-12T04:25:51.774Z,85.10
2023-02-12T04:29:09.215Z,84.89
2023-02-12T04:32:17.460Z,84.92
2023-02-12T04:35:25.306Z,84.89
2023-02-12T04:38:34.011Z,85.09
2023-02-12T04:41:36.853Z,85.00
2023-02-12T04:44:41.161Z,85.11
2023-02-12T04:47:43.956Z,85.70
2023-02-12T04:50:46.716Z,85.82
2023-02-12T04:53:51.061Z,85.83
2023-02-12T04:56:53.828Z,85.69
2023-02-12T04:59:56.568Z,85.75
2023-02-12T05:02:59.571Z,85.28
2023-02-12T05:06:04.458Z,85.51
2023-02-12T05:09:09.781Z,85.75
2023-02-12T05:12:12.501Z,86.25
2023-02-12T05:15:15.396Z,86.16
2023-02-12T05:18:18.085Z,86.11
2023-02-12T05:21:20.759Z,86.11
2023-02-12T05:24:24.921Z,85.94
2023-02-12T05:27:27.587Z,86.32
2023-02-12T05:30:30.388Z,86.69
2023-02-12T05:33:33.566Z,86.58
2023-02-12T05:36:36.418Z,86.50
2023-02-12T05:39:40.746Z,86.50
2023-02-12T05:42:43.453Z,86.38
2023-02-12T05:45:46.111Z,86.32
2023-02-12T05:48:49.060Z,86.38
2023-02-12T05:51:51.869Z,86.26
2023-02-12T05:54:55.917Z,86.43
2023-02-12T05:57:58.608Z,86.66
2023-02-12T06:01:01.293Z,86.55
2023-02-12T06:04:05.743Z,86.82
2023-02-12T06:07:08.450Z,86.96
2023-02-12T06:10:12.891Z,86.67
2023-02-12T06:13:15.554Z,86.66
2023-02-12T06:16:21.020Z,86.78
2023-02-12T06:19:24.417Z,86.84
2023-02-12T06:22:28.482Z,86.78
2023-02-12T06:25:32.619Z,86.63
2023-02-12T06:28:35.734Z,86.66
2023-02-12T06:31:39.253Z,86.58
2023-02-12T06:34:42.304Z,86.50
2023-02-12T06:37:45.141Z,86.95
2023-02-12T06:40:52.020Z,86.71
2023-02-12T06:43:54.798Z,86.90
2023-02-12T06:46:58.773Z,86.85
2023-02-12T06:50:01.729Z,86.60
2023-02-12T06:53:04.499Z,86.79
2023-02-12T06:56:11.457Z,86.82
2023-02-12T06:59:16.227Z,86.91
2023-02-12T07:02:18.957Z,86.78
2023-02-12T07:05:21.833Z,86.60
2023-02-12T07:08:24.630Z,86.37
2023-02-12T07:11:31.126Z,86.58
2023-02-12T07:14:33.887Z,86.18
2023-02-12T07:17:36.715Z,86.25
2023-02-12T07:20:39.546Z,86.05
2023-02-12T07:23:42.654Z,85.99
2023-02-12T07:26:46.793Z,86.02
2023-02-12T07:29:49.518Z,85.81
2023-02-12T07:32:52.165Z,86.07
2023-02-12T07:35:55.110Z,86.00
2023-02-12T07:38:59.285Z,85.44
2023-02-12T07:42:03.565Z,85.57
2023-02-12T07:45:07.741Z,85.34
2023-02-12T07:48:10.603Z,85.24
2023-02-12T07:51:16.048Z,85.28
2023-02-12T07:54:18.890Z,85.01
2023-02-12T07:57:22.952Z,84.93
2023-02-12T08:00:25.822Z,84.65
2023-02-12T08:03:29.647Z,84.64
2023-02-12T08:06:34.241Z,84.37
2023-02-12T08:09:37.012Z,84.44
2023-02-12T08:12:41.024Z,84.35
2023-02-12T08:15:43.694Z,84.16
2023-02-12T08:18:46.921Z,83.86
2023-02-12T08:21:50.782Z,83.56
2023-02-12T08:24:53.515Z,83.85
2023-02-12T08:27:57.676Z,83.62
2023-02-12T08:31:02.214Z,83.49
2023-02-12T08:34:05.955Z,83.53
2023-02-12T08:37:08.694Z,83.08
2023-02-12T08:40:13.854Z,83.21
2023-02-12T08:43:17.925Z,82.54
2023-02-12T08:46:23.423Z,82.76
2023-02-12T08:49:28.673Z,82.74
2023-02-12T08:52:31.347Z,82.91
2023-02-12T08:55:34.150Z,82.55
2023-02-12T08:58:38.996Z,82.41
2023-02-12T09:01:42.833Z,82.42
2023-02-12T09:04:45.738Z,82.31
2023-02-12T09:07:49.277Z,82.05
2023-02-12T09:10:51.997Z,81.69
2023-02-12T09:13:56.064Z,81.40
2023-02-12T09:16:58.747Z,80.99
2023-02-12T09:20:02.678Z,80.65
2023-02-12T09:23:05.859Z,80.89
2023-02-12T09:26:10.780Z,80.29
2023-02-12T09:29:14.930Z,80.17
2023-02-12T09:32:17.663Z,79.93
2023-02-12T09:35:20.582Z,79.80
2023-02-12T09:38:23.311Z,79.56
2023-02-12T09:41:45.382Z,79.60
2023-02-12T09:44:57.644Z,78.83
2023-02-12T09:48:13.645Z,78.46
2023-02-12T09:51:16.551Z,78.27
2023-02-12T09:54:22.103Z,78.13
2023-02-12T09:57:29.458Z,77.82
2023-02-12T10:00:33.782Z,76.91
2023-02-12T10:03:36.595Z,77.13
2023-02-12T10:06:50.678Z,76.64
2023-02-12T10:10:09.867Z,77.22
2023-02-12T10:13:25.132Z,76.91
2023-02-12T10:16:43.916Z,77.00
2023-02-12T10:20:19.641Z,77.02
2023-02-12T10:24:00.827Z,76.53
2023-02-12T10:27:11.864Z,76.45
2023-02-12T10:30:22.374Z,76.76
2023-02-12T10:33:32.867Z,76.75
2023-02-12T10:36:43.176Z,75.88
2023-02-12T10:39:51.605Z,76.17
2023-02-12T10:42:54.711Z,75.53
2023-02-12T10:45:58.178Z,75.57
2023-02-12T10:49:03.462Z,75.28
2023-02-12T10:52:14.980Z,74.93
2023-02-12T10:55:36.820Z,74.86
2023-02-12T10:58:41.865Z,74.32
2023-02-12T11:01:48.527Z,73.98
2023-02-12T11:04:54.301Z,73.57
2023-02-12T11:07:57.576Z,73.09
2023-02-12T11:11:11.151Z,72.67
2023-02-12T11:14:20.553Z,72.50
2023-02-12T11:17:29.758Z,72.44
2023-02-12T11:20:41.120Z,72.53
2023-02-12T11:23:45.299Z,71.52
2023-02-12T11:26:48.034Z,70.50
2023-02-12T11:30:14.186Z,71.45
2023-02-12T11:33:22.822Z,71.06
2023-02-12T11:36:29.772Z,71.01
2023-02-12T11:39:39.490Z,71.12
2023-02-12T11:42:43.469Z,71.26
2023-02-12T11:45:49.748Z,71.21
2023-02-12T11:48:54.341Z,70.86
2023-02-12T11:52:01.236Z,70.46
2023-02-12T11:55:07.859Z,70.21
2023-02-12T11:58:17.778Z,70.63
2023-02-12T12:01:23.619Z,70.11
2023-02-12T12:04:31.734Z,69.81
2023-02-12T12:07:40.080Z,69.66
2023-02-12T12:10:48.302Z,69.90
2023-02-12T12:13:58.669Z,69.75
2023-02-12T12:17:24.287Z,69.40
2023-02-12T12:20:32.042Z,68.81
2023-02-12T12:23:41.291Z,68.55
2023-02-12T12:26:50.231Z,68.71
2023-02-12T12:30:06.693Z,68.95
2023-02-12T12:33:18.360Z,68.14
2023-02-12T12:36:51.861Z,67.76
2023-02-12T12:40:09.111Z,67.53
2023-02-12T12:43:19.695Z,67.62
2023-02-12T12:46:47.851Z,66.83
2023-02-12T12:50:18.830Z,66.67
2023-02-12T12:53:35.947Z,66.93
2023-02-12T12:56:59.429Z,66.30
2023-02-12T13:00:21.126Z,66.02
2023-02-12T13:03:40.784Z,65.77
2023-02-12T13:06:54.416Z,65.25
2023-02-12T13:10:20.705Z,64.53
2023-02-12T13:13:34.008Z,64.41
2023-02-12T13:16:41.630Z,64.97
2023-02-12T13:19:54.369Z,65.73
2023-02-12T13:23:02.186Z,65.18
2023-02-12T13:26:12.664Z,66.18
2023-02-12T13:29:21.880Z,66.22
2023-02-12T13:32:29.609Z,67.00
2023-02-12T13:35:35.162Z,67.36
2023-02-12T13:38:41.465Z,67.64
2023-02-12T13:41:57.462Z,66.94
2023-02-12T13:45:18.239Z,67.43
2023-02-12T13:48:36.876Z,67.68
2023-02-12T13:51:44.985Z,67.59
2023-02-12T13:54:58.083Z,67.31
2023-02-12T13:58:40.799Z,66.98
2023-02-12T14:01:49.324Z,66.97
2023-02-12T14:04:57.193Z,66.31
2023-02-12T14:08:05.563Z,65.97
2023-02-12T14:11:10.524Z,65.72
2023-02-12T14:14:13.700Z,66.37
2023-02-12T14:17:44.262Z,65.96
2023-02-12T14:20:46.978Z,65.88
2023-02-12T14:23:50.762Z,65.88
2023-02-12T14:26:54.127Z,65.69
2023-02-12T14:30:26.992Z,64.38
2023-02-12T14:33:31.122Z,64.78
2023-02-12T14:36:40.790Z,64.56
2023-02-12T14:39:43.661Z,65.31
2023-02-12T14:42:56.863Z,65.49
2023-02-12T14:46:20.973Z,65.42
2023-02-12T14:49:28.205Z,65.93
2023-02-12T14:52:33.492Z,66.89
2023-02-12T14:55:36.689Z,67.47
2023-02-12T14:58:40.894Z,68.19
2023-02-12T15:01:44.434Z,68.70
2023-02-12T15:04:49.663Z,69.05
2023-02-12T15:07:56.165Z,69.56
2023-02-12T15:11:07.766Z,70.04
2023-02-12T15:14:17.686Z,70.24
2023-02-12T15:17:23.254Z,70.84
2023-02-12T15:20:35.715Z,70.78
2023-02-12T15:23:41.394Z,71.06
2023-02-12T15:26:48.253Z,71.18
2023-02-12T15:29:53.593Z,71.39
2023-02-12T15:32:57.754Z,71.66
2023-02-12T15:36:02.878Z,71.67
2023-02-12T15:39:09.713Z,71.61
2023-02-12T15:42:26.818Z,72.03
2023-02-12T15:45:30.990Z,72.28
2023-02-12T15:48:35.947Z,72.43
2023-02-12T15:51:42.237Z,73.29
2023-02-12T15:54:46.112Z,73.15
2023-02-12T15:57:51.457Z,73.17
2023-02-12T16:00:56.980Z,73.56
2023-02-12T16:04:03.320Z,74.13
2023-02-12T16:07:09.122Z,74.89
2023-02-12T16:10:15.716Z,74.74
2023-02-12T16:13:21.922Z,75.13
2023-02-12T16:16:28.086Z,75.26
2023-02-12T16:19:33.031Z,75.73
2023-02-12T16:22:39.656Z,76.19
2023-02-12T16:25:42.505Z,76.29
2023-02-12T16:28:48.374Z,76.10
2023-02-12T16:31:56.182Z,76.19
2023-02-12T16:35:02.310Z,76.26
2023-02-12T16:38:47.454Z,75.87
2023-02-12T16:41:56.358Z,75.71
2023-02-12T16:44:59.130Z,76.28
2023-02-12T16:48:04.938Z,76.37
2023-02-12T16:51:07.941Z,76.69
2023-02-12T16:54:31.238Z,76.92
2023-02-12T16:57:34.256Z,76.98
2023-02-12T17:00:37.059Z,77.32
2023-02-12T17:03:40.972Z,77.55
2023-02-12T17:06:44.092Z,77.71
2023-02-12T17:09:48.181Z,77.94
2023-02-12T17:12:53.162Z,77.58
2023-02-12T17:15:58.408Z,77.66
2023-02-12T17:19:02.212Z,78.59
2023-02-12T17:22:06.146Z,78.23
2023-02-12T17:25:11.504Z,78.24
2023-02-12T17:28:14.360Z,78.06
2023-02-12T17:31:17.241Z,78.56
2023-02-12T17:34:20.976Z,78.87
2023-02-12T17:37:25.400Z,78.59
2023-02-12T17:40:29.547Z,78.96
2023-02-12T17:43:32.319Z,78.78
2023-02-12T17:46:35.095Z,78.92
2023-02-12T17:49:39.851Z,77.93
2023-02-12T17:52:42.864Z,79.01
2023-02-12T17:55:48.106Z,79.59
2023-02-12T17:58:50.958Z,79.79
2023-02-12T18:01:54.144Z,79.82
2023-02-12T18:04:56.952Z,79.94
2023-02-12T18:07:59.783Z,80.03
2023-02-12T18:11:07.764Z,79.92
2023-02-12T18:14:12.444Z,80.27
2023-02-12T18:17:15.105Z,80.17
2023-02-12T18:20:17.981Z,80.19
2023-02-12T18:23:20.661Z,80.05
2023-02-12T18:26:24.721Z,80.32
2023-02-12T18:29:27.511Z,80.17
2023-02-12T18:32:30.221Z,80.35
2023-02-12T18:35:33.259Z,80.39
2023-02-12T18:38:37.137Z,80.20
2023-02-12T18:41:41.349Z,80.31
2023-02-12T18:44:44.081Z,80.15
2023-02-12T18:47:47.069Z,80.87
2023-02-12T18:50:51.752Z,80.79
2023-02-12T18:53:56.030Z,80.64
2023-02-12T18:57:00.342Z,80.63
2023-02-12T19:00:04.937Z,80.29
2023-02-12T19:03:07.826Z,80.64
2023-02-12T19:06:10.936Z,80.89
2023-02-12T19:09:16.584Z,80.92
2023-02-12T19:12:20.720Z,81.11
2023-02-12T19:15:23.488Z,81.54
2023-02-12T19:18:26.330Z,81.04
2023-02-12T19:21:29.166Z,81.48
2023-02-12T19:24:45.569Z,81.40
2023-02-12T19:27:50.170Z,81.33
2023-02-12T19:30:52.992Z,81.29
2023-02-12T19:33:59.183Z,80.74
2023-02-12T19:37:02.140Z,80.95
2023-02-12T19:40:05.126Z,81.25
2023-02-12T19:43:09.197Z,81.33
2023-02-12T19:46:13.555Z,81.49
2023-02-12T19:49:19.784Z,81.24
2023-02-12T19:52:22.461Z,81.62
2023-02-12T19:55:25.174Z,81.17
2023-02-12T19:58:31.176Z,81.46
2023-02-12T20:01:35.217Z,81.68
2023-02-12T20:04:37.931Z,81.28
2023-02-12T20:07:40.643Z,81.43
2023-02-12T20:10:43.365Z,82.00
2023-02-12T20:13:47.812Z,81.90
2023-02-12T20:16:51.879Z,81.70
2023-02-12T20:19:54.640Z,81.42
2023-02-12T20:22:57.487Z,81.74
2023-02-12T20:26:00.349Z,81.59
2023-02-12T20:29:05.759Z,81.77
2023-02-12T20:32:08.783Z,81.74
2023-02-12T20:35:11.869Z,81.53
2023-02-12T20:38:15.358Z,81.45
2023-02-12T20:41:18.113Z,81.42
2023-02-12T20:44:23.248Z,81.11
2023-02-12T20:47:28.805Z,81.18
2023-02-12T20:50:32.045Z,81.44
2023-02-12T20:53:35.049Z,81.24
2023-02-12T20:56:38.698Z,81.15
2023-02-12T20:59:42.884Z,81.58
2023-02-12T21:02:45.915Z,81.21
2023-02-12T21:05:48.691Z,81.11
2023-02-12T21:08:52.973Z,80.83
2023-02-12T21:11:58.178Z,81.14
2023-02-12T21:15:03.874Z,81.66
2023-02-12T21:18:06.692Z,81.65
2023-02-12T21:21:16.380Z,81.34
2023-02-12T21:24:21.622Z,81.54
2023-02-12T21:27:24.473Z,82.01
2023-02-12T21:30:29.266Z,82.08
2023-02-12T21:33:32.077Z,82.05
2023-02-12T21:36:37.392Z,81.60
2023-02-12T21:39:40.093Z,81.93
2023-02-12T21:42:42.782Z,81.60
2023-02-12T21:45:52.712Z,81.94
2023-02-12T21:48:55.924Z,82.21
2023-02-12T21:52:02.528Z,82.10
2023-02-12T21:55:05.513Z,82.34
2023-02-12T21:58:08.221Z,81.99
2023-02-12T22:01:13.972Z,82.58
2023-02-12T22:04:18.289Z,82.21
2023-02-12T22:07:21.020Z,82.36
2023-02-12T22:10:23.674Z,82.48
2023-02-12T22:13:26.343Z,82.26
2023-02-12T22:16:30.456Z,82.35
2023-02-12T22:19:33.297Z,82.33
2023-02-12T22:22:36.200Z,82.61
2023-02-12T22:25:39.304Z,83.03
2023-02-12T22:28:43.326Z,82.92
2023-02-12T22:31:48.340Z,82.55
2023-02-12T22:34:51.128Z,82.94
2023-02-12T22:37:53.801Z,83.14
2023-02-12T22:40:56.762Z,83.08
2023-02-12T22:44:00.118Z,82.88
2023-02-12T22:47:05.282Z,82.86
2023-02-12T22:50:08.799Z,82.65
2023-02-12T22:53:11.477Z,82.92
2023-02-12T22:56:14.348Z,83.39
2023-02-12T22:59:17.286Z,82.65
2023-02-12T23:02:21.604Z,83.38
2023-02-12T23:05:24.296Z,83.35
2023-02-12T23:08:27.047Z,83.32
2023-02-12T23:11:31.669Z,83.29
2023-02-12T23:14:36.093Z,83.41
2023-02-12T23:17:40.163Z,83.66
2023-02-12T23:20:42.825Z,83.77
2023-02-12T23:23:45.516Z,83.71
2023-02-12T23:26:48.169Z,83.62
2023-02-12T23:29:50.833Z,83.77
2023-02-12T23:32:55.139Z,83.94
2023-02-12T23:35:57.835Z,84.12
2023-02-12T23:39:00.505Z,83.82
2023-02-12T23:42:03.762Z,84.03
2023-02-12T23:45:06.829Z,84.37
2023-02-12T23:48:11.076Z,84.09
2023-02-12T23:51:13.832Z,84.24
2023-02-12T23:54:16.597Z,83.95
2023-02-12T23:57:19.277Z,84.27
